sensor_id;sensor_type;location;lat;lon;timestamp;pressure;altitude;pressure_sealevel;temperature;humidity
5053;BME280;2545;50.892;5.740;2022-11-20T00:01:11;56351.31;;;-142.21;100.00
5053;BME280;2545;50.892;5.740;2022-11-20T00:03:37;56359.16;;;-142.21;100.00
5053;BME280;2545;50.892;5.740;2022-11-20T00:06:04;56363.09;;;-142.21;100.00
5053;BME280;2545;50.892;5.740;2022-11-20T00:08:30;56347.41;;;-142.21;100.00
5053;BME280;2545;50.892;5.740;2022-11-20T00:10:55;56363.09;;;-142.21;100.00
5053;BME280;2545;50.892;5.740;2022-11-20T00:13:21;56347.41;;;-142.21;100.00
5053;BME280;2545;50.892;5.740;2022-11-20T00:15:46;56335.63;;;-142.21;100.00
5053;BME280;2545;50.892;5.740;2022-11-20T00:18:11;56349.38;;;-142.21;100.00
5053;BME280;2545;50.892;5.740;2022-11-20T00:20:37;56335.63;;;-142.21;100.00
5053;BME280;2545;50.892;5.740;2022-11-20T00:23:02;56341.53;;;-142.21;100.00
5053;BME280;2545;50.892;5.740;2022-11-20T00:25:27;56359.16;;;-142.21;100.00
5053;BME280;2545;50.892;5.740;2022-11-20T00:27:53;56380.75;;;-142.21;100.00
5053;BME280;2545;50.892;5.740;2022-11-20T00:30:18;56363.09;;;-142.21;100.00
5053;BME280;2545;50.892;5.740;2022-11-20T00:32:43;56343.47;;;-142.21;100.00
5053;BME280;2545;50.892;5.740;2022-11-20T00:35:09;56365.06;;;-142.21;100.00
5053;BME280;2545;50.892;5.740;2022-11-20T00:37:34;56335.63;;;-142.21;100.00
5053;BME280;2545;50.892;5.740;2022-11-20T00:39:59;56390.53;;;-142.21;100.00
5053;BME280;2545;50.892;5.740;2022-11-20T00:42:24;56363.09;;;-142.21;100.00
5053;BME280;2545;50.892;5.740;2022-11-20T00:44:50;56374.84;;;-142.21;100.00
5053;BME280;2545;50.892;5.740;2022-11-20T00:47:15;56367.00;;;-142.21;100.00
5053;BME280;2545;50.892;5.740;2022-11-20T00:49:40;56333.69;;;-142.21;100.00
5053;BME280;2545;50.892;5.740;2022-11-20T00:52:06;56386.63;;;-142.21;100.00
5053;BME280;2545;50.892;5.740;2022-11-20T00:54:31;56351.31;;;-142.21;100.00
5053;BME280;2545;50.892;5.740;2022-11-20T00:56:56;56347.41;;;-142.21;100.00
5053;BME280;2545;50.892;5.740;2022-11-20T00:59:21;56343.47;;;-142.21;100.00
5053;BME280;2545;50.892;5.740;2022-11-20T01:01:47;56351.31;;;-142.21;100.00
5053;BME280;2545;50.892;5.740;2022-11-20T01:04:12;56359.16;;;-142.21;100.00
5053;BME280;2545;50.892;5.740;2022-11-20T01:06:38;56343.47;;;-142.21;100.00
5053;BME280;2545;50.892;5.740;2022-11-20T01:09:07;56368.97;;;-142.21;100.00
5053;BME280;2545;50.892;5.740;2022-11-20T01:11:37;56374.84;;;-142.21;100.00
5053;BME280;2545;50.892;5.740;2022-11-20T01:14:05;56357.22;;;-142.21;100.00
5053;BME280;2545;50.892;5.740;2022-11-20T01:16:35;56357.22;;;-142.21;100.00
5053;BME280;2545;50.892;5.740;2022-11-20T01:19:03;56347.41;;;-142.21;100.00
5053;BME280;2545;50.892;5.740;2022-11-20T01:21:31;56370.94;;;-142.21;100.00
5053;BME280;2545;50.892;5.740;2022-11-20T01:23:57;56343.47;;;-142.21;100.00
5053;BME280;2545;50.892;5.740;2022-11-20T01:26:25;56372.91;;;-142.21;100.00
5053;BME280;2545;50.892;5.740;2022-11-20T01:28:51;56323.88;;;-142.21;100.00
5053;BME280;2545;50.892;5.740;2022-11-20T01:31:22;56363.09;;;-142.21;100.00
5053;BME280;2545;50.892;5.740;2022-11-20T01:33:50;56363.09;;;-142.21;100.00
5053;BME280;2545;50.892;5.740;2022-11-20T01:36:18;56347.41;;;-142.21;100.00
5053;BME280;2545;50.892;5.740;2022-11-20T01:38:44;56351.31;;;-142.21;100.00
5053;BME280;2545;50.892;5.740;2022-11-20T01:41:11;56345.44;;;-142.21;100.00
5053;BME280;2545;50.892;5.740;2022-11-20T01:43:58;56384.66;;;-142.21;100.00
5053;BME280;2545;50.892;5.740;2022-11-20T01:46:23;56341.53;;;-142.21;100.00
5053;BME280;2545;50.892;5.740;2022-11-20T01:48:54;56365.06;;;-142.21;100.00
5053;BME280;2545;50.892;5.740;2022-11-20T01:51:55;56365.06;;;-142.21;100.00
5053;BME280;2545;50.892;5.740;2022-11-20T01:54:25;56390.53;;;-142.21;100.00
5053;BME280;2545;50.892;5.740;2022-11-20T01:56:57;56374.84;;;-142.21;100.00
5053;BME280;2545;50.892;5.740;2022-11-20T01:59:26;56325.84;;;-142.21;100.00
5053;BME280;2545;50.892;5.740;2022-11-20T02:01:52;56357.22;;;-142.21;100.00
5053;BME280;2545;50.892;5.740;2022-11-20T02:04:18;56347.41;;;-142.21;100.00
5053;BME280;2545;50.892;5.740;2022-11-20T02:06:56;56370.94;;;-142.21;100.00
5053;BME280;2545;50.892;5.740;2022-11-20T02:09:24;56378.78;;;-142.21;100.00
5053;BME280;2545;50.892;5.740;2022-11-20T02:11:49;56365.06;;;-142.21;100.00
5053;BME280;2545;50.892;5.740;2022-11-20T02:14:14;56351.31;;;-142.21;100.00
5053;BME280;2545;50.892;5.740;2022-11-20T02:16:44;56335.63;;;-142.21;100.00
5053;BME280;2545;50.892;5.740;2022-11-20T02:19:21;56359.16;;;-142.21;100.00
5053;BME280;2545;50.892;5.740;2022-11-20T02:22:02;56361.13;;;-142.21;100.00
5053;BME280;2545;50.892;5.740;2022-11-20T02:24:29;56368.97;;;-142.21;100.00
5053;BME280;2545;50.892;5.740;2022-11-20T02:27:08;56351.31;;;-142.21;100.00
5053;BME280;2545;50.892;5.740;2022-11-20T02:29:38;56343.47;;;-142.21;100.00
5053;BME280;2545;50.892;5.740;2022-11-20T02:32:05;56361.13;;;-142.21;100.00
5053;BME280;2545;50.892;5.740;2022-11-20T02:34:30;56388.59;;;-142.21;100.00
5053;BME280;2545;50.892;5.740;2022-11-20T02:36:56;56370.94;;;-142.21;100.00
5053;BME280;2545;50.892;5.740;2022-11-20T02:39:24;56363.09;;;-142.21;100.00
5053;BME280;2545;50.892;5.740;2022-11-20T02:41:52;56376.81;;;-142.21;100.00
5053;BME280;2545;50.892;5.740;2022-11-20T02:44:18;56361.13;;;-142.21;100.00
5053;BME280;2545;50.892;5.740;2022-11-20T02:46:44;56382.69;;;-142.21;100.00
5053;BME280;2545;50.892;5.740;2022-11-20T02:49:09;56370.94;;;-142.21;100.00
5053;BME280;2545;50.892;5.740;2022-11-20T02:51:34;56331.72;;;-142.21;100.00
5053;BME280;2545;50.892;5.740;2022-11-20T02:53:59;56323.88;;;-142.21;100.00
5053;BME280;2545;50.892;5.740;2022-11-20T02:56:25;56349.38;;;-142.21;100.00
5053;BME280;2545;50.892;5.740;2022-11-20T02:58:50;56378.78;;;-142.21;100.00
5053;BME280;2545;50.892;5.740;2022-11-20T03:01:16;56353.28;;;-142.21;100.00
5053;BME280;2545;50.892;5.740;2022-11-20T03:03:41;56351.31;;;-142.21;100.00
5053;BME280;2545;50.892;5.740;2022-11-20T03:06:07;56339.56;;;-142.21;100.00
5053;BME280;2545;50.892;5.740;2022-11-20T03:08:33;56361.13;;;-142.21;100.00
5053;BME280;2545;50.892;5.740;2022-11-20T03:11:02;56374.84;;;-142.21;100.00
5053;BME280;2545;50.892;5.740;2022-11-20T03:13:28;56353.28;;;-142.21;100.00
5053;BME280;2545;50.892;5.740;2022-11-20T03:15:53;56361.13;;;-142.21;100.00
5053;BME280;2545;50.892;5.740;2022-11-20T03:18:18;56361.13;;;-142.21;100.00
5053;BME280;2545;50.892;5.740;2022-11-20T03:20:44;56349.38;;;-142.21;100.00
5053;BME280;2545;50.892;5.740;2022-11-20T03:23:09;56398.38;;;-142.21;100.00
5053;BME280;2545;50.892;5.740;2022-11-20T03:25:34;56394.47;;;-142.21;100.00
5053;BME280;2545;50.892;5.740;2022-11-20T03:28:00;56319.94;;;-142.21;100.00
5053;BME280;2545;50.892;5.740;2022-11-20T03:30:26;56349.38;;;-142.21;100.00
5053;BME280;2545;50.892;5.740;2022-11-20T03:32:53;56308.19;;;-142.21;100.00
5053;BME280;2545;50.892;5.740;2022-11-20T03:35:18;56343.47;;;-142.21;100.00
5053;BME280;2545;50.892;5.740;2022-11-20T03:37:44;56365.06;;;-142.21;100.00
5053;BME280;2545;50.892;5.740;2022-11-20T03:40:10;56359.16;;;-142.21;100.00
5053;BME280;2545;50.892;5.740;2022-11-20T03:42:36;56378.78;;;-142.21;100.00
5053;BME280;2545;50.892;5.740;2022-11-20T03:45:10;56308.19;;;-142.21;100.00
5053;BME280;2545;50.892;5.740;2022-11-20T03:47:36;56353.28;;;-142.21;100.00
5053;BME280;2545;50.892;5.740;2022-11-20T03:50:01;56359.16;;;-142.21;100.00
5053;BME280;2545;50.892;5.740;2022-11-20T03:52:26;56367.00;;;-142.21;100.00
5053;BME280;2545;50.892;5.740;2022-11-20T03:54:52;56331.72;;;-142.21;100.00
5053;BME280;2545;50.892;5.740;2022-11-20T03:57:17;56357.22;;;-142.21;100.00
5053;BME280;2545;50.892;5.740;2022-11-20T03:59:42;56351.31;;;-142.21;100.00
5053;BME280;2545;50.892;5.740;2022-11-20T04:02:07;56363.09;;;-142.21;100.00
5053;BME280;2545;50.892;5.740;2022-11-20T04:04:33;56368.97;;;-142.21;100.00
5053;BME280;2545;50.892;5.740;2022-11-20T04:06:58;56341.53;;;-142.21;100.00
5053;BME280;2545;50.892;5.740;2022-11-20T04:09:24;56378.78;;;-142.21;100.00
5053;BME280;2545;50.892;5.740;2022-11-20T04:11:49;56343.47;;;-142.21;100.00
5053;BME280;2545;50.892;5.740;2022-11-20T04:14:15;56357.22;;;-142.21;100.00
5053;BME280;2545;50.892;5.740;2022-11-20T04:16:42;56353.28;;;-142.21;100.00
5053;BME280;2545;50.892;5.740;2022-11-20T04:19:11;56368.97;;;-142.21;100.00
5053;BME280;2545;50.892;5.740;2022-11-20T04:21:37;56357.22;;;-142.21;100.00
5053;BME280;2545;50.892;5.740;2022-11-20T04:24:03;56357.22;;;-142.21;100.00
5053;BME280;2545;50.892;5.740;2022-11-20T04:26:29;56355.25;;;-142.21;100.00
5053;BME280;2545;50.892;5.740;2022-11-20T04:28:55;56363.09;;;-142.21;100.00
5053;BME280;2545;50.892;5.740;2022-11-20T04:31:23;56367.00;;;-142.21;100.00
5053;BME280;2545;50.892;5.740;2022-11-20T04:33:49;56351.31;;;-142.21;100.00
5053;BME280;2545;50.892;5.740;2022-11-20T04:36:17;56376.81;;;-142.21;100.00
5053;BME280;2545;50.892;5.740;2022-11-20T04:38:42;56335.63;;;-142.21;100.00
5053;BME280;2545;50.892;5.740;2022-11-20T04:41:14;56357.22;;;-142.21;100.00
5053;BME280;2545;50.892;5.740;2022-11-20T04:43:40;56323.88;;;-142.21;100.00
5053;BME280;2545;50.892;5.740;2022-11-20T04:46:05;56361.13;;;-142.21;100.00
5053;BME280;2545;50.892;5.740;2022-11-20T04:48:30;56363.09;;;-142.21;100.00
5053;BME280;2545;50.892;5.740;2022-11-20T04:50:56;56390.53;;;-142.21;100.00
5053;BME280;2545;50.892;5.740;2022-11-20T04:53:22;56372.91;;;-142.21;100.00
5053;BME280;2545;50.892;5.740;2022-11-20T04:55:47;56378.78;;;-142.21;100.00
5053;BME280;2545;50.892;5.740;2022-11-20T04:58:13;56327.78;;;-142.21;100.00
5053;BME280;2545;50.892;5.740;2022-11-20T05:00:38;56394.47;;;-142.21;100.00
5053;BME280;2545;50.892;5.740;2022-11-20T05:03:04;56370.94;;;-142.21;100.00
5053;BME280;2545;50.892;5.740;2022-11-20T05:05:29;56370.94;;;-142.21;100.00
5053;BME280;2545;50.892;5.740;2022-11-20T05:07:58;56345.44;;;-142.21;100.00
5053;BME280;2545;50.892;5.740;2022-11-20T05:10:25;56351.31;;;-142.21;100.00
5053;BME280;2545;50.892;5.740;2022-11-20T05:12:51;56339.56;;;-142.21;100.00
5053;BME280;2545;50.892;5.740;2022-11-20T05:15:16;56335.63;;;-142.21;100.00
5053;BME280;2545;50.892;5.740;2022-11-20T05:17:47;56382.69;;;-142.21;100.00
5053;BME280;2545;50.892;5.740;2022-11-20T05:20:13;56378.78;;;-142.21;100.00
5053;BME280;2545;50.892;5.740;2022-11-20T05:22:38;56353.28;;;-142.21;100.00
5053;BME280;2545;50.892;5.740;2022-11-20T05:25:04;56418.00;;;-142.21;100.00
5053;BME280;2545;50.892;5.740;2022-11-20T05:27:29;56372.91;;;-142.21;100.00
5053;BME280;2545;50.892;5.740;2022-11-20T05:29:54;56339.56;;;-142.21;100.00
5053;BME280;2545;50.892;5.740;2022-11-20T05:32:19;56386.63;;;-142.21;100.00
5053;BME280;2545;50.892;5.740;2022-11-20T05:34:45;56402.31;;;-142.21;100.00
5053;BME280;2545;50.892;5.740;2022-11-20T05:37:10;56367.00;;;-142.21;100.00
5053;BME280;2545;50.892;5.740;2022-11-20T05:39:35;56337.59;;;-142.21;100.00
5053;BME280;2545;50.892;5.740;2022-11-20T05:42:01;56363.09;;;-142.21;100.00
5053;BME280;2545;50.892;5.740;2022-11-20T05:44:44;56359.16;;;-142.21;100.00
5053;BME280;2545;50.892;5.740;2022-11-20T05:47:09;56341.53;;;-142.21;100.00
5053;BME280;2545;50.892;5.740;2022-11-20T05:49:35;56343.47;;;-142.21;100.00
5053;BME280;2545;50.892;5.740;2022-11-20T05:52:00;56361.13;;;-142.21;100.00
5053;BME280;2545;50.892;5.740;2022-11-20T05:54:25;56363.09;;;-142.21;100.00
5053;BME280;2545;50.892;5.740;2022-11-20T05:56:51;56368.97;;;-142.21;100.00
5053;BME280;2545;50.892;5.740;2022-11-20T05:59:16;56347.41;;;-142.21;100.00
5053;BME280;2545;50.892;5.740;2022-11-20T06:01:42;56367.00;;;-142.21;100.00
5053;BME280;2545;50.892;5.740;2022-11-20T06:04:07;56406.22;;;-142.21;100.00
5053;BME280;2545;50.892;5.740;2022-11-20T06:06:32;56361.13;;;-142.21;100.00
5053;BME280;2545;50.892;5.740;2022-11-20T06:08:58;56394.47;;;-142.21;100.00
5053;BME280;2545;50.892;5.740;2022-11-20T06:11:24;56390.53;;;-142.21;100.00
5053;BME280;2545;50.892;5.740;2022-11-20T06:13:50;56374.84;;;-142.21;100.00
5053;BME280;2545;50.892;5.740;2022-11-20T06:16:18;56323.88;;;-142.21;100.00
5053;BME280;2545;50.892;5.740;2022-11-20T06:18:44;56386.63;;;-142.21;100.00
5053;BME280;2545;50.892;5.740;2022-11-20T06:21:27;56390.53;;;-142.21;100.00
5053;BME280;2545;50.892;5.740;2022-11-20T06:23:53;56374.84;;;-142.21;100.00
5053;BME280;2545;50.892;5.740;2022-11-20T06:26:24;56363.09;;;-142.21;100.00
5053;BME280;2545;50.892;5.740;2022-11-20T06:28:51;56400.34;;;-142.21;100.00
5053;BME280;2545;50.892;5.740;2022-11-20T06:31:19;56402.31;;;-142.21;100.00
5053;BME280;2545;50.892;5.740;2022-11-20T06:33:45;56345.44;;;-142.21;100.00
5053;BME280;2545;50.892;5.740;2022-11-20T06:36:12;56394.47;;;-142.21;100.00
5053;BME280;2545;50.892;5.740;2022-11-20T06:38:38;56378.78;;;-142.21;100.00
5053;BME280;2545;50.892;5.740;2022-11-20T06:41:11;56363.09;;;-142.21;100.00
5053;BME280;2545;50.892;5.740;2022-11-20T06:43:36;56310.13;;;-142.21;100.00
5053;BME280;2545;50.892;5.740;2022-11-20T06:46:02;56359.16;;;-142.21;100.00
5053;BME280;2545;50.892;5.740;2022-11-20T06:48:28;56374.84;;;-142.21;100.00
5053;BME280;2545;50.892;5.740;2022-11-20T06:50:54;56368.97;;;-142.21;100.00
5053;BME280;2545;50.892;5.740;2022-11-20T06:53:19;56384.66;;;-142.21;100.00
5053;BME280;2545;50.892;5.740;2022-11-20T06:55:45;56382.69;;;-142.21;100.00
5053;BME280;2545;50.892;5.740;2022-11-20T06:58:12;56394.47;;;-142.21;100.00
5053;BME280;2545;50.892;5.740;2022-11-20T07:00:37;56378.78;;;-142.21;100.00
5053;BME280;2545;50.892;5.740;2022-11-20T07:03:07;56390.53;;;-142.21;100.00
5053;BME280;2545;50.892;5.740;2022-11-20T07:05:33;56361.13;;;-142.21;100.00
5053;BME280;2545;50.892;5.740;2022-11-20T07:07:58;56406.22;;;-142.21;100.00
5053;BME280;2545;50.892;5.740;2022-11-20T07:10:24;56382.69;;;-142.21;100.00
5053;BME280;2545;50.892;5.740;2022-11-20T07:12:51;56412.13;;;-142.21;100.00
5053;BME280;2545;50.892;5.740;2022-11-20T07:15:17;56359.16;;;-142.21;100.00
5053;BME280;2545;50.892;5.740;2022-11-20T07:17:43;56359.16;;;-142.21;100.00
5053;BME280;2545;50.892;5.740;2022-11-20T07:20:08;56361.13;;;-142.21;100.00
5053;BME280;2545;50.892;5.740;2022-11-20T07:24:01;56396.44;;;-142.21;100.00
5053;BME280;2545;50.892;5.740;2022-11-20T07:26:26;56367.00;;;-142.21;100.00
5053;BME280;2545;50.892;5.740;2022-11-20T07:28:51;56402.31;;;-142.21;100.00
5053;BME280;2545;50.892;5.740;2022-11-20T07:31:16;56351.31;;;-142.21;100.00
5053;BME280;2545;50.892;5.740;2022-11-20T07:33:42;56378.78;;;-142.21;100.00
5053;BME280;2545;50.892;5.740;2022-11-20T07:36:07;56341.53;;;-142.21;100.00
5053;BME280;2545;50.892;5.740;2022-11-20T07:38:32;56370.94;;;-142.21;100.00
5053;BME280;2545;50.892;5.740;2022-11-20T07:40:58;56380.75;;;-142.21;100.00
5053;BME280;2545;50.892;5.740;2022-11-20T07:43:26;56384.66;;;-142.21;100.00
5053;BME280;2545;50.892;5.740;2022-11-20T07:45:55;56374.84;;;-142.21;100.00
5053;BME280;2545;50.892;5.740;2022-11-20T07:48:20;56427.81;;;-142.21;100.00
5053;BME280;2545;50.892;5.740;2022-11-20T07:50:45;56351.31;;;-142.21;100.00
5053;BME280;2545;50.892;5.740;2022-11-20T07:53:11;56361.13;;;-142.21;100.00
5053;BME280;2545;50.892;5.740;2022-11-20T07:55:37;56357.22;;;-142.21;100.00
5053;BME280;2545;50.892;5.740;2022-11-20T07:58:02;56400.34;;;-142.21;100.00
5053;BME280;2545;50.892;5.740;2022-11-20T08:00:28;56390.53;;;-142.21;100.00
5053;BME280;2545;50.892;5.740;2022-11-20T08:02:53;56368.97;;;-142.21;100.00
5053;BME280;2545;50.892;5.740;2022-11-20T08:05:18;56370.94;;;-142.21;100.00
5053;BME280;2545;50.892;5.740;2022-11-20T08:07:44;56310.13;;;-142.21;100.00
5053;BME280;2545;50.892;5.740;2022-11-20T08:10:12;56398.38;;;-142.21;100.00
5053;BME280;2545;50.892;5.740;2022-11-20T08:12:52;56367.00;;;-142.21;100.00
5053;BME280;2545;50.892;5.740;2022-11-20T08:15:37;56376.81;;;-142.21;100.00
5053;BME280;2545;50.892;5.740;2022-11-20T08:18:05;56406.22;;;-142.21;100.00
5053;BME280;2545;50.892;5.740;2022-11-20T08:20:30;56392.50;;;-142.21;100.00
5053;BME280;2545;50.892;5.740;2022-11-20T08:23:00;56382.69;;;-142.21;100.00
5053;BME280;2545;50.892;5.740;2022-11-20T08:25:27;56378.78;;;-142.21;100.00
5053;BME280;2545;50.892;5.740;2022-11-20T08:27:52;56368.97;;;-142.21;100.00
5053;BME280;2545;50.892;5.740;2022-11-20T08:30:17;56396.44;;;-142.21;100.00
5053;BME280;2545;50.892;5.740;2022-11-20T08:32:43;56378.78;;;-142.21;100.00
5053;BME280;2545;50.892;5.740;2022-11-20T08:35:08;56363.09;;;-142.21;100.00
5053;BME280;2545;50.892;5.740;2022-11-20T08:37:33;56374.84;;;-142.21;100.00
5053;BME280;2545;50.892;5.740;2022-11-20T08:39:59;56361.13;;;-142.21;100.00
5053;BME280;2545;50.892;5.740;2022-11-20T08:42:24;56392.50;;;-142.21;100.00
5053;BME280;2545;50.892;5.740;2022-11-20T08:44:49;56376.81;;;-142.21;100.00
5053;BME280;2545;50.892;5.740;2022-11-20T08:47:15;56390.53;;;-142.21;100.00
5053;BME280;2545;50.892;5.740;2022-11-20T08:49:40;56367.00;;;-142.21;100.00
5053;BME280;2545;50.892;5.740;2022-11-20T08:52:05;56388.59;;;-142.21;100.00
5053;BME280;2545;50.892;5.740;2022-11-20T08:54:31;56327.78;;;-142.21;100.00
5053;BME280;2545;50.892;5.740;2022-11-20T08:56:56;56337.59;;;-142.21;100.00
5053;BME280;2545;50.892;5.740;2022-11-20T08:59:21;56355.25;;;-142.21;100.00
5053;BME280;2545;50.892;5.740;2022-11-20T09:01:46;56368.97;;;-142.21;100.00
5053;BME280;2545;50.892;5.740;2022-11-20T09:04:12;56390.53;;;-142.21;100.00
5053;BME280;2545;50.892;5.740;2022-11-20T09:06:39;56370.94;;;-142.21;100.00
5053;BME280;2545;50.892;5.740;2022-11-20T09:09:04;56410.16;;;-142.21;100.00
5053;BME280;2545;50.892;5.740;2022-11-20T09:11:31;56374.84;;;-142.21;100.00
5053;BME280;2545;50.892;5.740;2022-11-20T09:13:56;56390.53;;;-142.21;100.00
5053;BME280;2545;50.892;5.740;2022-11-20T09:16:21;56368.97;;;-142.21;100.00
5053;BME280;2545;50.892;5.740;2022-11-20T09:18:49;56361.13;;;-142.21;100.00
5053;BME280;2545;50.892;5.740;2022-11-20T09:21:15;56357.22;;;-142.21;100.00
5053;BME280;2545;50.892;5.740;2022-11-20T09:23:41;56374.84;;;-142.21;100.00
5053;BME280;2545;50.892;5.740;2022-11-20T09:26:09;56349.38;;;-142.21;100.00
5053;BME280;2545;50.892;5.740;2022-11-20T09:28:35;56363.09;;;-142.21;100.00
5053;BME280;2545;50.892;5.740;2022-11-20T09:31:04;56390.53;;;-142.21;100.00
5053;BME280;2545;50.892;5.740;2022-11-20T09:33:30;56339.56;;;-142.21;100.00
5053;BME280;2545;50.892;5.740;2022-11-20T09:35:55;56357.22;;;-142.21;100.00
5053;BME280;2545;50.892;5.740;2022-11-20T09:38:20;56367.00;;;-142.21;100.00
5053;BME280;2545;50.892;5.740;2022-11-20T09:40:58;56374.84;;;-142.21;100.00
5053;BME280;2545;50.892;5.740;2022-11-20T09:43:46;56359.16;;;-142.21;100.00
5053;BME280;2545;50.892;5.740;2022-11-20T09:46:27;56365.06;;;-142.21;100.00
5053;BME280;2545;50.892;5.740;2022-11-20T09:49:32;56321.91;;;-142.21;100.00
5053;BME280;2545;50.892;5.740;2022-11-20T09:52:28;56343.47;;;-142.21;100.00
5053;BME280;2545;50.892;5.740;2022-11-20T09:54:57;56382.69;;;-142.21;100.00
5053;BME280;2545;50.892;5.740;2022-11-20T09:57:33;56398.38;;;-142.21;100.00
5053;BME280;2545;50.892;5.740;2022-11-20T10:00:01;56382.69;;;-142.21;100.00
5053;BME280;2545;50.892;5.740;2022-11-20T10:02:30;56374.84;;;-142.21;100.00
5053;BME280;2545;50.892;5.740;2022-11-20T10:05:22;56414.06;;;-142.21;100.00
5053;BME280;2545;50.892;5.740;2022-11-20T10:07:55;56368.97;;;-142.21;100.00
5053;BME280;2545;50.892;5.740;2022-11-20T10:10:34;56343.47;;;-142.21;100.00
5053;BME280;2545;50.892;5.740;2022-11-20T10:18:50;56384.66;;;-142.21;100.00
5053;BME280;2545;50.892;5.740;2022-11-20T10:21:27;56396.44;;;-142.21;100.00
5053;BME280;2545;50.892;5.740;2022-11-20T10:27:15;56347.41;;;-142.21;100.00
5053;BME280;2545;50.892;5.740;2022-11-20T10:29:47;56367.00;;;-142.21;100.00
5053;BME280;2545;50.892;5.740;2022-11-20T10:32:19;56367.00;;;-142.21;100.00
5053;BME280;2545;50.892;5.740;2022-11-20T10:35:06;56337.59;;;-142.21;100.00
5053;BME280;2545;50.892;5.740;2022-11-20T10:37:43;56376.81;;;-142.21;100.00
5053;BME280;2545;50.892;5.740;2022-11-20T10:40:32;56353.28;;;-142.21;100.00
5053;BME280;2545;50.892;5.740;2022-11-20T10:43:07;56353.28;;;-142.21;100.00
5053;BME280;2545;50.892;5.740;2022-11-20T10:45:43;56390.53;;;-142.21;100.00
5053;BME280;2545;50.892;5.740;2022-11-20T10:48:24;56323.88;;;-142.21;100.00
5053;BME280;2545;50.892;5.740;2022-11-20T10:56:17;56365.06;;;-142.21;100.00
5053;BME280;2545;50.892;5.740;2022-11-20T11:01:28;56368.97;;;-142.21;100.00
5053;BME280;2545;50.892;5.740;2022-11-20T11:03:54;56392.50;;;-142.21;100.00
5053;BME280;2545;50.892;5.740;2022-11-20T11:08:49;56386.63;;;-142.21;100.00
5053;BME280;2545;50.892;5.740;2022-11-20T11:11:22;56376.81;;;-142.21;100.00
5053;BME280;2545;50.892;5.740;2022-11-20T11:13:48;56351.31;;;-142.21;100.00
5053;BME280;2545;50.892;5.740;2022-11-20T11:16:25;56323.88;;;-142.21;100.00
5053;BME280;2545;50.892;5.740;2022-11-20T11:18:51;56376.81;;;-142.21;100.00
5053;BME280;2545;50.892;5.740;2022-11-20T11:21:24;56372.91;;;-142.21;100.00
5053;BME280;2545;50.892;5.740;2022-11-20T11:24:00;56374.84;;;-142.21;100.00
5053;BME280;2545;50.892;5.740;2022-11-20T11:26:26;56408.19;;;-142.21;100.00
5053;BME280;2545;50.892;5.740;2022-11-20T11:28:56;56345.44;;;-142.21;100.00
5053;BME280;2545;50.892;5.740;2022-11-20T11:31:26;56335.63;;;-142.21;100.00
5053;BME280;2545;50.892;5.740;2022-11-20T11:33:51;56351.31;;;-142.21;100.00
5053;BME280;2545;50.892;5.740;2022-11-20T11:36:22;56376.81;;;-142.21;100.00
5053;BME280;2545;50.892;5.740;2022-11-20T11:38:51;56345.44;;;-142.21;100.00
5053;BME280;2545;50.892;5.740;2022-11-20T11:41:22;56382.69;;;-142.21;100.00
5053;BME280;2545;50.892;5.740;2022-11-20T11:44:00;56390.53;;;-142.21;100.00
5053;BME280;2545;50.892;5.740;2022-11-20T11:46:55;56361.13;;;-142.21;100.00
5053;BME280;2545;50.892;5.740;2022-11-20T11:49:22;56363.09;;;-142.21;100.00
5053;BME280;2545;50.892;5.740;2022-11-20T11:54:51;56343.47;;;-142.21;100.00
5053;BME280;2545;50.892;5.740;2022-11-20T12:00:16;56355.25;;;-142.21;100.00
5053;BME280;2545;50.892;5.740;2022-11-20T12:07:46;56388.59;;;-142.21;100.00
5053;BME280;2545;50.892;5.740;2022-11-20T12:10:23;56390.53;;;-142.21;100.00
5053;BME280;2545;50.892;5.740;2022-11-20T12:15:46;56337.59;;;-142.21;100.00
5053;BME280;2545;50.892;5.740;2022-11-20T12:18:16;56388.59;;;-142.21;100.00
5053;BME280;2545;50.892;5.740;2022-11-20T12:20:52;56398.38;;;-142.21;100.00
5053;BME280;2545;50.892;5.740;2022-11-20T12:23:31;56372.91;;;-142.21;100.00
5053;BME280;2545;50.892;5.740;2022-11-20T12:26:08;56367.00;;;-142.21;100.00
5053;BME280;2545;50.892;5.740;2022-11-20T12:28:42;56394.47;;;-142.21;100.00
5053;BME280;2545;50.892;5.740;2022-11-20T12:31:41;56345.44;;;-142.21;100.00
5053;BME280;2545;50.892;5.740;2022-11-20T12:34:44;56384.66;;;-142.21;100.00
5053;BME280;2545;50.892;5.740;2022-11-20T12:39:49;56365.06;;;-142.21;100.00
5053;BME280;2545;50.892;5.740;2022-11-20T12:42:26;56357.22;;;-142.21;100.00
5053;BME280;2545;50.892;5.740;2022-11-20T12:45:23;56323.88;;;-142.21;100.00
5053;BME280;2545;50.892;5.740;2022-11-20T13:01:49;56341.53;;;-142.21;95.92
5053;BME280;2545;50.892;5.740;2022-11-20T13:04:33;56361.13;;;-142.21;95.09
5053;BME280;2545;50.892;5.740;2022-11-20T13:07:10;56361.13;;;-142.21;92.81
5053;BME280;2545;50.892;5.740;2022-11-20T13:09:42;56351.31;;;-142.21;93.34
5053;BME280;2545;50.892;5.740;2022-11-20T13:17:50;56388.59;;;-142.21;93.52
5053;BME280;2545;50.892;5.740;2022-11-20T13:20:18;56353.28;;;-142.21;92.38
5053;BME280;2545;50.892;5.740;2022-11-20T13:22:47;56370.94;;;-142.21;89.96
5053;BME280;2545;50.892;5.740;2022-11-20T13:28:43;56343.47;;;-142.21;87.81
5053;BME280;2545;50.892;5.740;2022-11-20T13:30:52;56370.94;;;-142.21;85.95
5053;BME280;2545;50.892;5.740;2022-11-20T13:33:25;56376.81;;;-142.21;85.08
5053;BME280;2545;50.892;5.740;2022-11-20T13:38:25;56416.03;;;-142.21;82.63
5053;BME280;2545;50.892;5.740;2022-11-20T13:43:40;56304.25;;;-142.21;84.98
5053;BME280;2545;50.892;5.740;2022-11-20T13:46:07;56341.53;;;-142.21;87.15
5053;BME280;2545;50.892;5.740;2022-11-20T13:48:39;56357.22;;;-142.21;89.46
5053;BME280;2545;50.892;5.740;2022-11-20T13:51:10;56357.22;;;-142.21;89.71
5053;BME280;2545;50.892;5.740;2022-11-20T13:54:29;56361.13;;;-142.21;90.90
5053;BME280;2545;50.892;5.740;2022-11-20T13:59:36;56382.69;;;-142.21;93.64
5053;BME280;2545;50.892;5.740;2022-11-20T14:02:11;56370.94;;;-142.21;99.19
5053;BME280;2545;50.892;5.740;2022-11-20T14:04:42;56372.91;;;-142.21;100.00
5053;BME280;2545;50.892;5.740;2022-11-20T14:07:08;56370.94;;;-142.21;100.00